createdAt,value
2022-11-25T00:01:35.456Z,6.60
2022-11-25T00:04:23.825Z,6.50
2022-11-25T00:07:12.197Z,6.50
2022-11-25T00:10:00.549Z,6.40
2022-11-25T00:12:48.862Z,6.30
2022-11-25T00:15:38.555Z,6.30
2022-11-25T00:18:26.856Z,6.20
2022-11-25T00:21:17.083Z,6.10
2022-11-25T00:24:07.976Z,6.00
2022-11-25T00:26:56.258Z,5.90
2022-11-25T00:29:44.596Z,5.80
2022-11-25T00:32:34.332Z,5.80
2022-11-25T00:35:22.754Z,5.70
2022-11-25T00:38:11.063Z,5.60
2022-11-25T00:41:13.431Z,5.50
2022-11-25T00:44:19.104Z,5.40
2022-11-25T00:47:10.223Z,5.50
2022-11-25T00:49:59.744Z,5.50
2022-11-25T00:52:48.080Z,5.40
2022-11-25T00:56:04.076Z,5.30
2022-11-25T00:58:54.992Z,5.30
2022-11-25T01:01:43.342Z,5.30
2022-11-25T01:04:31.693Z,5.30
2022-11-25T01:07:21.514Z,5.30
2022-11-25T01:10:10.789Z,5.30
2022-11-25T01:12:59.179Z,5.30
2022-11-25T01:15:47.538Z,5.20
2022-11-25T01:18:36.426Z,5.20
2022-11-25T01:21:26.319Z,5.10
2022-11-25T01:24:17.305Z,5.10
2022-11-25T01:27:05.615Z,5.00
2022-11-25T01:29:53.907Z,5.00
2022-11-25T01:32:42.258Z,4.90
2022-11-25T01:35:30.605Z,4.90
2022-11-25T01:38:18.890Z,4.90
2022-11-25T01:41:10.984Z,4.80
2022-11-25T01:44:13.939Z,4.70
2022-11-25T01:47:05.944Z,4.60
2022-11-25T01:50:00.812Z,4.60
2022-11-25T01:52:53.135Z,4.60
2022-11-25T01:55:46.030Z,4.60
2022-11-25T01:58:38.312Z,4.50
2022-11-25T02:01:26.931Z,4.50
2022-11-25T02:04:17.402Z,4.40
2022-11-25T02:07:10.747Z,4.40
2022-11-25T02:10:01.167Z,4.40
2022-11-25T02:12:49.877Z,4.40
2022-11-25T02:15:39.796Z,4.30
2022-11-25T02:18:29.090Z,4.30
2022-11-25T02:21:25.605Z,4.30
2022-11-25T02:24:19.472Z,4.30
2022-11-25T02:27:09.539Z,4.30
2022-11-25T02:29:57.981Z,4.30
2022-11-25T02:32:47.049Z,4.30
2022-11-25T02:35:37.636Z,4.30
2022-11-25T02:38:32.055Z,4.20
2022-11-25T02:41:25.634Z,4.10
2022-11-25T02:44:15.440Z,4.10
2022-11-25T02:47:03.801Z,4.20
2022-11-25T02:49:52.106Z,4.20
2022-11-25T02:52:41.661Z,4.10
2022-11-25T02:55:30.126Z,4.00
2022-11-25T02:58:18.713Z,4.10
2022-11-25T03:01:09.427Z,4.00
2022-11-25T03:03:58.052Z,4.00
2022-11-25T03:06:46.353Z,4.10
2022-11-25T03:09:34.735Z,4.00
2022-11-25T03:12:23.077Z,4.00
2022-11-25T03:15:11.766Z,4.00
2022-11-25T03:18:01.741Z,3.90
2022-11-25T03:20:53.923Z,3.90
2022-11-25T03:23:42.232Z,3.90
2022-11-25T03:26:30.552Z,3.80
2022-11-25T03:29:18.896Z,3.80
2022-11-25T03:32:09.688Z,3.90
2022-11-25T03:34:59.644Z,3.80
2022-11-25T03:37:48.312Z,3.80
2022-11-25T03:40:36.661Z,3.90
2022-11-25T03:43:24.958Z,3.80
2022-11-25T03:46:13.372Z,3.80
2022-11-25T03:49:01.824Z,3.80
2022-11-25T03:51:51.540Z,3.80
2022-11-25T03:54:39.897Z,3.70
2022-11-25T03:57:28.297Z,3.60
2022-11-25T04:00:16.881Z,3.60
2022-11-25T04:03:05.291Z,3.60
2022-11-25T04:05:53.603Z,3.70
2022-11-25T04:08:43.416Z,3.70
2022-11-25T04:11:45.612Z,3.80
2022-11-25T04:14:34.225Z,3.80
2022-11-25T04:17:22.984Z,3.70
2022-11-25T04:20:13.010Z,3.70
2022-11-25T04:23:01.389Z,3.60
2022-11-25T04:25:52.224Z,3.60
2022-11-25T04:28:40.543Z,3.60
2022-11-25T04:31:28.969Z,3.50
2022-11-25T04:34:17.382Z,3.50
2022-11-25T04:37:05.675Z,3.50
2022-11-25T04:39:53.992Z,3.50
2022-11-25T04:42:43.663Z,3.60
2022-11-25T04:45:51.531Z,3.60
2022-11-25T04:48:40.276Z,3.70
2022-11-25T04:51:28.698Z,3.70
2022-11-25T04:54:17.680Z,3.80
2022-11-25T04:57:06.158Z,3.80
2022-11-25T04:59:55.889Z,3.80
2022-11-25T05:02:44.357Z,3.70
2022-11-25T05:05:32.725Z,3.70
2022-11-25T05:08:21.095Z,3.70
2022-11-25T05:11:09.447Z,3.70
2022-11-25T05:13:57.776Z,3.70
2022-11-25T05:16:47.521Z,3.70
2022-11-25T05:19:36.791Z,3.70
2022-11-25T05:22:27.889Z,3.80
2022-11-25T05:25:17.290Z,3.80
2022-11-25T05:28:05.929Z,3.80
2022-11-25T05:30:54.333Z,3.80
2022-11-25T05:33:43.996Z,3.80
2022-11-25T05:36:32.755Z,3.80
2022-11-25T05:39:21.489Z,3.70
2022-11-25T05:42:10.004Z,3.70
2022-11-25T05:44:58.305Z,3.70
2022-11-25T05:47:46.661Z,3.70
2022-11-25T05:50:37.585Z,3.60
2022-11-25T05:53:25.908Z,3.60
2022-11-25T05:56:14.321Z,3.60
2022-11-25T05:59:03.425Z,3.60
2022-11-25T06:01:54.222Z,3.50
2022-11-25T06:04:42.609Z,3.50
2022-11-25T06:07:32.330Z,3.50
2022-11-25T06:10:21.131Z,3.50
2022-11-25T06:13:09.887Z,3.50
2022-11-25T06:16:00.281Z,3.50
2022-11-25T06:18:51.154Z,3.50
2022-11-25T06:21:39.503Z,3.50
2022-11-25T06:24:30.297Z,3.50
2022-11-25T06:27:18.611Z,3.40
2022-11-25T06:30:08.451Z,3.40
2022-11-25T06:32:57.124Z,3.40
2022-11-25T06:35:45.459Z,3.40
2022-11-25T06:38:34.188Z,3.40
2022-11-25T06:41:24.245Z,3.40
2022-11-25T06:44:12.542Z,3.50
2022-11-25T06:47:00.890Z,3.50
2022-11-25T06:49:51.145Z,3.50
2022-11-25T06:52:39.539Z,3.50
2022-11-25T06:55:27.897Z,3.50
2022-11-25T06:58:34.821Z,3.50
2022-11-25T07:01:26.334Z,3.50
2022-11-25T07:04:14.780Z,3.50
2022-11-25T07:07:03.144Z,3.50
2022-11-25T07:09:51.543Z,3.50
2022-11-25T07:12:40.106Z,3.40
2022-11-25T07:15:29.919Z,3.40
2022-11-25T07:18:18.385Z,3.50
2022-11-25T07:21:09.201Z,3.50
2022-11-25T07:23:59.299Z,3.50
2022-11-25T07:26:47.676Z,3.60
2022-11-25T07:29:57.909Z,3.60
2022-11-25T07:32:46.370Z,3.60
2022-11-25T07:35:35.403Z,3.70
2022-11-25T07:38:23.902Z,3.80
2022-11-25T07:41:14.657Z,3.80
2022-11-25T07:44:05.788Z,3.90
2022-11-25T07:46:54.186Z,3.90
2022-11-25T07:49:44.045Z,3.90
2022-11-25T07:52:32.360Z,3.90
2022-11-25T07:55:20.706Z,4.00
2022-11-25T07:58:09.030Z,4.00
2022-11-25T08:00:57.432Z,4.00
2022-11-25T08:03:47.454Z,4.00
2022-11-25T08:06:40.102Z,4.10
2022-11-25T08:09:28.429Z,4.00
2022-11-25T08:12:16.773Z,4.10
2022-11-25T08:15:05.447Z,4.00
2022-11-25T08:17:53.971Z,4.00
2022-11-25T08:20:42.312Z,4.10
2022-11-25T08:23:32.974Z,4.10
2022-11-25T08:26:23.814Z,4.10
2022-11-25T08:29:16.028Z,4.10
2022-11-25T08:32:10.297Z,4.20
2022-11-25T08:35:00.222Z,4.30
2022-11-25T08:37:48.600Z,4.30
2022-11-25T08:40:38.848Z,4.50
2022-11-25T08:43:29.706Z,4.50
2022-11-25T08:46:20.548Z,4.60
2022-11-25T08:49:10.027Z,4.70
2022-11-25T08:51:58.441Z,4.70
2022-11-25T08:54:46.771Z,4.80
2022-11-25T08:57:36.594Z,4.80
2022-11-25T09:00:25.067Z,4.80
2022-11-25T09:03:13.787Z,4.80
2022-11-25T09:06:02.220Z,4.80
2022-11-25T09:08:50.542Z,4.80
2022-11-25T09:11:38.971Z,4.80
2022-11-25T09:14:28.745Z,4.80
2022-11-25T09:17:17.158Z,4.90
2022-11-25T09:20:06.408Z,4.90
2022-11-25T09:22:54.984Z,4.90
2022-11-25T09:25:43.274Z,5.00
2022-11-25T09:28:31.617Z,5.10
2022-11-25T09:31:22.122Z,5.20
2022-11-25T09:34:10.542Z,5.20
2022-11-25T09:36:58.887Z,5.20
2022-11-25T09:39:47.224Z,5.30
2022-11-25T09:43:10.125Z,5.40
2022-11-25T09:46:34.655Z,5.40
2022-11-25T09:49:49.129Z,5.40
2022-11-25T09:52:49.281Z,5.40
2022-11-25T09:55:43.081Z,5.50
2022-11-25T09:58:35.476Z,5.60
2022-11-25T10:01:26.660Z,5.60
2022-11-25T10:04:16.542Z,5.70
2022-11-25T10:07:11.422Z,5.70
2022-11-25T10:10:02.580Z,5.80
2022-11-25T10:12:51.159Z,5.90
2022-11-25T10:15:44.325Z,5.90
2022-11-25T10:18:40.295Z,5.90
2022-11-25T10:21:29.404Z,5.90
2022-11-25T10:24:21.455Z,6.10
2022-11-25T10:27:19.288Z,6.20
2022-11-25T10:30:16.646Z,6.20
2022-11-25T10:33:11.109Z,6.30
2022-11-25T10:36:02.094Z,6.40
2022-11-25T10:39:00.444Z,6.50
2022-11-25T10:41:58.879Z,6.60
2022-11-25T10:44:47.205Z,6.70
2022-11-25T10:47:38.681Z,6.80
2022-11-25T10:50:34.998Z,6.90
2022-11-25T10:53:26.422Z,7.10
2022-11-25T10:56:19.980Z,7.20
2022-11-25T10:59:22.024Z,7.30
2022-11-25T11:02:20.479Z,7.40
2022-11-25T11:05:23.258Z,7.50
2022-11-25T11:08:19.109Z,7.60
2022-11-25T11:11:19.427Z,7.70
2022-11-25T11:14:21.206Z,7.80
2022-11-25T11:17:38.256Z,7.90
2022-11-25T11:20:28.916Z,8.00
2022-11-25T11:23:17.656Z,8.00
2022-11-25T11:26:09.776Z,8.00
2022-11-25T11:29:01.056Z,8.10
2022-11-25T11:31:57.067Z,8.10
2022-11-25T11:34:59.258Z,8.20
2022-11-25T11:37:53.021Z,8.20
2022-11-25T11:40:46.590Z,8.20
2022-11-25T11:43:57.015Z,8.30
2022-11-25T11:46:59.630Z,8.30
2022-11-25T11:50:03.349Z,8.30
2022-11-25T11:52:58.450Z,8.40
2022-11-25T11:56:19.032Z,8.50
2022-11-25T11:59:26.372Z,8.60
2022-11-25T12:02:36.529Z,8.60
2022-11-25T12:05:28.766Z,8.70
2022-11-25T12:08:24.172Z,8.80
2022-11-25T12:11:15.824Z,8.80
2022-11-25T12:14:10.656Z,8.90
2022-11-25T12:17:02.107Z,8.90
2022-11-25T12:19:58.129Z,9.00
2022-11-25T12:22:53.396Z,9.10
2022-11-25T12:25:43.323Z,9.10
2022-11-25T12:28:38.791Z,9.20
2022-11-25T12:31:30.414Z,9.30
2022-11-25T12:34:27.612Z,9.30
2022-11-25T12:37:28.195Z,9.40
2022-11-25T12:40:19.833Z,9.40
2022-11-25T12:43:24.490Z,9.50
2022-11-25T12:46:25.748Z,9.50
2022-11-25T12:49:19.780Z,9.50
2022-11-25T12:52:19.946Z,9.50
2022-11-25T12:55:16.518Z,9.50
2022-11-25T12:58:38.064Z,9.50
2022-11-25T13:01:40.386Z,9.60
2022-11-25T13:04:44.290Z,9.60
2022-11-25T13:07:42.179Z,9.60
2022-11-25T13:10:41.906Z,9.70
2022-11-25T13:13:43.774Z,9.70
2022-11-25T13:16:33.159Z,9.70
2022-11-25T13:19:22.479Z,9.70
2022-11-25T13:22:29.688Z,9.80
2022-11-25T13:25:25.718Z,9.80
2022-11-25T13:28:32.773Z,9.80
2022-11-25T13:31:24.304Z,9.80
2022-11-25T13:34:27.316Z,9.80
2022-11-25T13:37:40.000Z,9.80
2022-11-25T13:40:39.817Z,9.80
2022-11-25T13:43:28.701Z,9.80
2022-11-25T13:46:30.972Z,9.80
2022-11-25T13:49:25.895Z,9.90
2022-11-25T13:52:37.112Z,9.80
2022-11-25T13:55:27.410Z,9.80
2022-11-25T13:58:21.367Z,9.90
2022-11-25T14:01:29.492Z,9.80
2022-11-25T14:04:25.365Z,9.80
2022-11-25T14:07:27.870Z,9.80
2022-11-25T14:10:40.557Z,9.80
2022-11-25T14:13:47.391Z,9.80
2022-11-25T14:16:58.733Z,9.70
2022-11-25T14:19:59.677Z,9.70
2022-11-25T14:23:15.295Z,9.70
2022-11-25T14:26:26.751Z,9.60
2022-11-25T14:29:23.076Z,9.60
2022-11-25T14:32:15.796Z,9.50
2022-11-25T14:35:10.087Z,9.40
2022-11-25T14:38:02.458Z,9.40
2022-11-25T14:40:57.285Z,9.40
2022-11-25T14:43:49.809Z,9.30
2022-11-25T14:46:52.285Z,9.20
2022-11-25T14:50:05.712Z,9.20
2022-11-25T14:53:02.015Z,9.10
2022-11-25T14:55:51.080Z,9.00
2022-11-25T14:58:42.545Z,9.00
2022-11-25T15:01:32.176Z,8.90
2022-11-25T15:04:23.035Z,8.90
2022-11-25T15:07:20.193Z,9.00
2022-11-25T15:10:31.490Z,9.00
2022-11-25T15:13:30.299Z,8.90
2022-11-25T15:16:22.225Z,8.80
2022-11-25T15:19:19.271Z,8.70
2022-11-25T15:22:23.144Z,8.60
2022-11-25T15:25:16.155Z,8.50
2022-11-25T15:28:17.107Z,8.40
2022-11-25T15:31:12.583Z,8.30
2022-11-25T15:34:03.755Z,8.30
2022-11-25T15:36:54.460Z,8.20
2022-11-25T15:39:43.141Z,8.20
2022-11-25T15:42:33.692Z,8.20
2022-11-25T15:45:23.810Z,8.10
2022-11-25T15:48:18.806Z,8.10
2022-11-25T15:51:21.842Z,8.10
2022-11-25T15:54:19.973Z,8.00
2022-11-25T15:57:17.830Z,8.00
2022-11-25T16:00:16.905Z,8.00
2022-11-25T16:03:20.822Z,7.90
2022-11-25T16:06:21.119Z,7.90
2022-11-25T16:09:21.895Z,7.80
2022-11-25T16:12:17.795Z,7.80
2022-11-25T16:15:16.988Z,7.80
2022-11-25T16:18:32.389Z,7.80
2022-11-25T16:21:22.854Z,7.70
2022-11-25T16:24:27.867Z,7.70
2022-11-25T16:27:19.528Z,7.80
2022-11-25T16:30:19.494Z,7.80
2022-11-25T16:33:11.855Z,7.90
2022-11-25T16:36:03.222Z,7.90
2022-11-25T16:38:55.369Z,7.90
2022-11-25T16:41:46.293Z,8.00
2022-11-25T16:44:36.591Z,8.00
2022-11-25T16:47:26.233Z,8.10
2022-11-25T16:50:18.506Z,8.10
2022-11-25T16:53:06.808Z,8.10
2022-11-25T16:55:55.135Z,8.10
2022-11-25T16:58:44.709Z,8.10
2022-11-25T17:01:35.026Z,8.20
2022-11-25T17:04:23.535Z,8.20
2022-11-25T17:07:32.311Z,8.20
2022-11-25T17:10:22.308Z,8.20
2022-11-25T17:13:18.863Z,8.20
2022-11-25T17:16:08.013Z,8.10
2022-11-25T17:18:59.360Z,8.10
2022-11-25T17:21:47.827Z,8.10
2022-11-25T17:24:37.741Z,8.10
2022-11-25T17:27:32.289Z,8.10
2022-11-25T17:30:23.952Z,8.10
2022-11-25T17:33:16.434Z,8.10
2022-11-25T17:36:05.214Z,8.10
2022-11-25T17:38:53.875Z,8.10
2022-11-25T17:41:47.702Z,8.20
2022-11-25T17:44:36.334Z,8.20
2022-11-25T17:47:24.957Z,8.20
2022-11-25T17:50:19.377Z,8.10
2022-11-25T17:53:07.929Z,8.10
2022-11-25T17:55:56.479Z,8.10
2022-11-25T17:58:46.442Z,8.10
2022-11-25T18:01:34.855Z,8.20
2022-11-25T18:04:25.226Z,8.20
2022-11-25T18:07:13.670Z,8.20
2022-11-25T18:10:01.984Z,8.30
2022-11-25T18:12:53.408Z,8.30
2022-11-25T18:15:44.062Z,8.30
2022-11-25T18:18:32.446Z,8.30
2022-11-25T18:21:23.834Z,8.40
2022-11-25T18:24:12.229Z,8.40
2022-11-25T18:27:00.665Z,8.40
2022-11-25T18:29:49.645Z,8.40
2022-11-25T18:32:39.313Z,8.40
2022-11-25T18:35:34.288Z,8.50
2022-11-25T18:38:24.733Z,8.50
2022-11-25T18:41:20.299Z,8.60
2022-11-25T18:44:25.530Z,8.60
2022-11-25T18:47:14.529Z,8.50
2022-11-25T18:50:07.685Z,8.50
2022-11-25T18:52:56.024Z,8.60
2022-11-25T18:55:44.739Z,8.60
2022-11-25T18:58:33.707Z,8.60
2022-11-25T19:01:24.282Z,8.60
2022-11-25T19:04:17.089Z,8.60
2022-11-25T19:07:06.811Z,8.60
2022-11-25T19:09:55.175Z,8.60
2022-11-25T19:12:44.918Z,8.60
2022-11-25T19:15:34.157Z,8.60
2022-11-25T19:18:26.133Z,8.50
2022-11-25T19:21:17.071Z,8.50
2022-11-25T19:24:13.493Z,8.40
2022-11-25T19:27:01.857Z,8.30
2022-11-25T19:29:51.698Z,8.20
2022-11-25T19:32:40.035Z,8.20
2022-11-25T19:35:38.486Z,8.10
2022-11-25T19:38:27.200Z,8.00
2022-11-25T19:41:16.928Z,7.90
2022-11-25T19:44:05.332Z,7.90
2022-11-25T19:47:14.429Z,7.90
2022-11-25T19:50:03.304Z,7.90
2022-11-25T19:52:52.071Z,7.80
2022-11-25T19:55:40.462Z,7.70
2022-11-25T19:58:30.184Z,7.70
2022-11-25T20:01:20.823Z,7.70
2022-11-25T20:04:19.777Z,7.60
2022-11-25T20:07:11.183Z,7.60
2022-11-25T20:10:08.807Z,7.60
2022-11-25T20:12:58.884Z,7.60
2022-11-25T20:15:48.639Z,7.60
2022-11-25T20:18:38.103Z,7.60
2022-11-25T20:21:30.978Z,7.60
2022-11-25T20:24:21.744Z,7.60
2022-11-25T20:27:12.942Z,7.70
2022-11-25T20:30:01.372Z,7.70
2022-11-25T20:32:51.902Z,7.70
2022-11-25T20:35:41.192Z,7.60
2022-11-25T20:38:31.241Z,7.60
2022-11-25T20:41:24.376Z,7.50
2022-11-25T20:44:16.170Z,7.50
2022-11-25T20:47:04.825Z,7.60
2022-11-25T20:49:54.882Z,7.50
2022-11-25T20:52:44.136Z,7.60
2022-11-25T20:55:33.004Z,7.60
2022-11-25T20:58:24.622Z,7.60
2022-11-25T21:01:14.532Z,7.70
2022-11-25T21:04:02.989Z,7.70
2022-11-25T21:06:53.283Z,7.70
2022-11-25T21:09:42.339Z,7.70
2022-11-25T21:12:30.715Z,7.70
2022-11-25T21:15:21.218Z,7.60
2022-11-25T21:18:09.787Z,7.60
2022-11-25T21:20:58.836Z,7.60
2022-11-25T21:23:49.282Z,7.70
2022-11-25T21:26:37.635Z,7.70
2022-11-25T21:29:26.968Z,7.80
2022-11-25T21:32:21.747Z,7.90
2022-11-25T21:35:12.061Z,7.90
2022-11-25T21:38:04.507Z,7.90
2022-11-25T21:40:56.307Z,8.00
2022-11-25T21:43:46.764Z,7.90
2022-11-25T21:46:35.500Z,7.90
2022-11-25T21:49:25.134Z,7.80
2022-11-25T21:52:14.216Z,7.80
2022-11-25T21:55:02.727Z,7.80
2022-11-25T21:57:52.494Z,7.80
2022-11-25T22:00:41.112Z,7.90
2022-11-25T22:03:32.065Z,8.00
2022-11-25T22:06:24.067Z,8.00
2022-11-25T22:09:13.025Z,8.00
2022-11-25T22:12:01.671Z,8.00
2022-11-25T22:14:51.401Z,8.10
2022-11-25T22:17:39.958Z,8.10
2022-11-25T22:20:30.838Z,8.10
2022-11-25T22:23:20.549Z,8.20
2022-11-25T22:26:13.334Z,8.20
2022-11-25T22:29:02.830Z,8.20
2022-11-25T22:31:52.914Z,8.20
2022-11-25T22:34:41.347Z,8.30
2022-11-25T22:37:30.596Z,8.30
2022-11-25T22:40:19.219Z,8.30
2022-11-25T22:43:07.758Z,8.40
2022-11-25T22:45:57.433Z,8.40
2022-11-25T22:48:47.539Z,8.40
2022-11-25T22:51:35.896Z,8.50
2022-11-25T22:54:24.925Z,8.50
2022-11-25T22:57:13.466Z,8.50
2022-11-25T23:00:01.800Z,8.50
2022-11-25T23:02:50.931Z,8.60
2022-11-25T23:05:40.996Z,8.60
2022-11-25T23:08:31.713Z,8.60
2022-11-25T23:11:22.194Z,8.70
2022-11-25T23:14:10.776Z,8.70
2022-11-25T23:16:59.131Z,8.70
2022-11-25T23:19:48.335Z,8.70
2022-11-25T23:22:38.032Z,8.70
2022-11-25T23:25:26.355Z,8.70
2022-11-25T23:28:16.271Z,8.70
2022-11-25T23:31:04.681Z,8.60
2022-11-25T23:33:53.566Z,8.70
2022-11-25T23:36:45.777Z,8.70
2022-11-25T23:39:35.516Z,8.70
2022-11-25T23:42:23.841Z,8.70
2022-11-25T23:45:15.610Z,8.70
2022-11-25T23:48:05.018Z,8.70
2022-11-25T23:50:56.288Z,8.70
2022-11-25T23:53:45.052Z,8.70
2022-11-25T23:56:34.739Z,8.70
2022-11-25T23:59:25.031Z,8.70
